Archival Weather

Tokyo Intl

Tokyo, Japan (RJTT)

Report from: Saturday, April 1, 2023 7:30 PM JST
Current time: Sunday, July 14, 2024 7:04 PM JST

Current weather – Weather history – Daily summaries
Weather forecast

Temperature16.0°C (60.8°F)
Dew point12.0°C (53.6°F)
Winds 10 kts (5.1 m/s, 11.5 mph) East (80°)
Visibility6.2 mi. (10 km)
Clouds Ceiling: Broken clouds 4,000 ft. (1,219 m)
Altimeter30.00 in.Hg (1016 mB)
Relative humidity77 %
Density altitude222 ft. (68 m)
Flight conditions Visual Meteorological Conditions
Raw dataRJTT 011030Z 08010KT 9999 BKN040 16/12 Q1016 BECMG FM1130 05008KT
An error has occurred. This application may no longer respond until reloaded. Reload 🗙